sensor_id;sensor_type;location;lat;lon;timestamp;temperature;humidity
23259;DHT22;11798;51.528;7.240;2022-08-25T00:01:41;21.80;99.90
23259;DHT22;11798;51.528;7.240;2022-08-25T00:04:10;21.80;99.90
23259;DHT22;11798;51.528;7.240;2022-08-25T00:06:37;21.80;99.90
23259;DHT22;11798;51.528;7.240;2022-08-25T00:09:04;21.80;99.90
23259;DHT22;11798;51.528;7.240;2022-08-25T00:11:32;21.70;99.90
23259;DHT22;11798;51.528;7.240;2022-08-25T00:14:02;21.70;99.90
23259;DHT22;11798;51.528;7.240;2022-08-25T00:16:29;21.70;99.90
23259;DHT22;11798;51.528;7.240;2022-08-25T00:19:02;21.70;99.90
23259;DHT22;11798;51.528;7.240;2022-08-25T00:21:28;21.60;99.90
23259;DHT22;11798;51.528;7.240;2022-08-25T00:23:57;21.70;99.90
23259;DHT22;11798;51.528;7.240;2022-08-25T00:26:23;21.60;99.90
23259;DHT22;11798;51.528;7.240;2022-08-25T00:28:51;21.60;99.90
23259;DHT22;11798;51.528;7.240;2022-08-25T00:31:19;21.60;99.90
23259;DHT22;11798;51.528;7.240;2022-08-25T00:33:47;21.50;99.90
23259;DHT22;11798;51.528;7.240;2022-08-25T00:36:13;21.50;99.90
23259;DHT22;11798;51.528;7.240;2022-08-25T00:38:42;21.50;99.90
23259;DHT22;11798;51.528;7.240;2022-08-25T00:41:08;21.50;99.90
23259;DHT22;11798;51.528;7.240;2022-08-25T00:43:56;21.50;99.90
23259;DHT22;11798;51.528;7.240;2022-08-25T00:46:25;21.40;99.90
23259;DHT22;11798;51.528;7.240;2022-08-25T00:49:12;21.40;99.90
23259;DHT22;11798;51.528;7.240;2022-08-25T00:51:48;21.30;99.90
23259;DHT22;11798;51.528;7.240;2022-08-25T00:54:28;21.20;99.90
23259;DHT22;11798;51.528;7.240;2022-08-25T00:56:57;21.20;99.90
23259;DHT22;11798;51.528;7.240;2022-08-25T00:59:24;21.10;99.90
23259;DHT22;11798;51.528;7.240;2022-08-25T01:01:51;21.10;99.90
23259;DHT22;11798;51.528;7.240;2022-08-25T01:04:18;21.00;99.90
23259;DHT22;11798;51.528;7.240;2022-08-25T01:06:43;21.00;99.90
23259;DHT22;11798;51.528;7.240;2022-08-25T01:09:10;20.90;99.90
23259;DHT22;11798;51.528;7.240;2022-08-25T01:11:36;20.90;99.90
23259;DHT22;11798;51.528;7.240;2022-08-25T01:14:02;20.80;99.90
23259;DHT22;11798;51.528;7.240;2022-08-25T01:16:34;20.80;99.90
23259;DHT22;11798;51.528;7.240;2022-08-25T01:18:59;20.80;99.90
23259;DHT22;11798;51.528;7.240;2022-08-25T01:21:26;20.70;99.90
23259;DHT22;11798;51.528;7.240;2022-08-25T01:23:52;20.70;99.90
23259;DHT22;11798;51.528;7.240;2022-08-25T01:26:29;20.60;99.90
23259;DHT22;11798;51.528;7.240;2022-08-25T01:28:55;20.60;99.90
23259;DHT22;11798;51.528;7.240;2022-08-25T01:31:40;20.60;99.90
23259;DHT22;11798;51.528;7.240;2022-08-25T01:34:06;20.60;99.90
23259;DHT22;11798;51.528;7.240;2022-08-25T01:36:32;20.60;99.90
23259;DHT22;11798;51.528;7.240;2022-08-25T01:38:58;20.50;99.90
23259;DHT22;11798;51.528;7.240;2022-08-25T01:44:02;20.50;99.90
23259;DHT22;11798;51.528;7.240;2022-08-25T01:46:30;20.50;99.90
23259;DHT22;11798;51.528;7.240;2022-08-25T01:48:55;20.40;99.90
23259;DHT22;11798;51.528;7.240;2022-08-25T01:51:23;20.40;99.90
23259;DHT22;11798;51.528;7.240;2022-08-25T01:53:49;20.40;99.90
23259;DHT22;11798;51.528;7.240;2022-08-25T01:56:15;20.40;99.90
23259;DHT22;11798;51.528;7.240;2022-08-25T01:58:42;20.40;99.90
23259;DHT22;11798;51.528;7.240;2022-08-25T02:01:09;20.40;99.90
23259;DHT22;11798;51.528;7.240;2022-08-25T02:03:36;20.40;99.90
23259;DHT22;11798;51.528;7.240;2022-08-25T02:06:03;20.40;99.90
23259;DHT22;11798;51.528;7.240;2022-08-25T02:08:28;20.40;99.90
23259;DHT22;11798;51.528;7.240;2022-08-25T02:10:54;20.40;99.90
23259;DHT22;11798;51.528;7.240;2022-08-25T02:13:20;20.30;99.90
23259;DHT22;11798;51.528;7.240;2022-08-25T02:15:46;20.30;99.90
23259;DHT22;11798;51.528;7.240;2022-08-25T02:18:13;20.20;99.90
23259;DHT22;11798;51.528;7.240;2022-08-25T02:20:39;20.10;99.90
23259;DHT22;11798;51.528;7.240;2022-08-25T02:23:06;20.10;99.90
23259;DHT22;11798;51.528;7.240;2022-08-25T02:25:31;20.00;99.90
23259;DHT22;11798;51.528;7.240;2022-08-25T02:27:58;19.90;99.90
23259;DHT22;11798;51.528;7.240;2022-08-25T02:30:24;19.80;99.90
23259;DHT22;11798;51.528;7.240;2022-08-25T02:32:50;19.70;99.90
23259;DHT22;11798;51.528;7.240;2022-08-25T02:35:15;19.70;99.90
23259;DHT22;11798;51.528;7.240;2022-08-25T02:37:41;19.60;99.90
23259;DHT22;11798;51.528;7.240;2022-08-25T02:40:07;19.60;99.90
23259;DHT22;11798;51.528;7.240;2022-08-25T02:42:33;19.50;99.90
23259;DHT22;11798;51.528;7.240;2022-08-25T02:44:58;19.50;99.90
23259;DHT22;11798;51.528;7.240;2022-08-25T02:47:24;19.50;99.90
23259;DHT22;11798;51.528;7.240;2022-08-25T02:49:49;19.50;99.90
23259;DHT22;11798;51.528;7.240;2022-08-25T02:52:15;19.30;99.90
23259;DHT22;11798;51.528;7.240;2022-08-25T02:54:40;19.20;99.90
23259;DHT22;11798;51.528;7.240;2022-08-25T02:57:06;19.10;99.90
23259;DHT22;11798;51.528;7.240;2022-08-25T02:59:32;19.10;99.90
23259;DHT22;11798;51.528;7.240;2022-08-25T03:01:57;19.20;99.90
23259;DHT22;11798;51.528;7.240;2022-08-25T03:04:23;19.10;99.90
23259;DHT22;11798;51.528;7.240;2022-08-25T03:06:48;19.20;99.90
23259;DHT22;11798;51.528;7.240;2022-08-25T03:09:14;19.20;99.90
23259;DHT22;11798;51.528;7.240;2022-08-25T03:11:40;19.20;99.90
23259;DHT22;11798;51.528;7.240;2022-08-25T03:14:07;19.20;99.90
23259;DHT22;11798;51.528;7.240;2022-08-25T03:16:33;19.20;99.90
23259;DHT22;11798;51.528;7.240;2022-08-25T03:18:59;19.20;99.90
23259;DHT22;11798;51.528;7.240;2022-08-25T03:21:25;19.20;99.90
23259;DHT22;11798;51.528;7.240;2022-08-25T03:23:51;19.00;99.90
23259;DHT22;11798;51.528;7.240;2022-08-25T03:26:16;19.10;99.90
23259;DHT22;11798;51.528;7.240;2022-08-25T03:29:01;19.10;99.90
23259;DHT22;11798;51.528;7.240;2022-08-25T03:31:30;19.00;99.90
23259;DHT22;11798;51.528;7.240;2022-08-25T03:33:56;19.10;99.90
23259;DHT22;11798;51.528;7.240;2022-08-25T03:36:22;19.00;99.90
23259;DHT22;11798;51.528;7.240;2022-08-25T03:38:47;19.00;99.90
23259;DHT22;11798;51.528;7.240;2022-08-25T03:41:14;19.00;99.90
23259;DHT22;11798;51.528;7.240;2022-08-25T03:43:40;19.00;99.90
23259;DHT22;11798;51.528;7.240;2022-08-25T03:46:06;19.00;99.90
23259;DHT22;11798;51.528;7.240;2022-08-25T03:48:31;19.00;99.90
23259;DHT22;11798;51.528;7.240;2022-08-25T03:50:56;18.90;99.90
23259;DHT22;11798;51.528;7.240;2022-08-25T03:53:22;18.90;99.90
23259;DHT22;11798;51.528;7.240;2022-08-25T03:55:48;18.90;99.90
23259;DHT22;11798;51.528;7.240;2022-08-25T03:58:13;18.80;99.90
23259;DHT22;11798;51.528;7.240;2022-08-25T04:00:39;18.80;99.90
23259;DHT22;11798;51.528;7.240;2022-08-25T04:03:05;18.80;99.90
23259;DHT22;11798;51.528;7.240;2022-08-25T04:05:30;18.80;99.90
23259;DHT22;11798;51.528;7.240;2022-08-25T04:07:56;18.80;99.90
23259;DHT22;11798;51.528;7.240;2022-08-25T04:10:22;18.80;99.90
23259;DHT22;11798;51.528;7.240;2022-08-25T04:12:47;18.70;99.90
23259;DHT22;11798;51.528;7.240;2022-08-25T04:15:13;18.70;99.90
23259;DHT22;11798;51.528;7.240;2022-08-25T04:17:39;18.70;99.90
23259;DHT22;11798;51.528;7.240;2022-08-25T04:20:05;18.70;99.90
23259;DHT22;11798;51.528;7.240;2022-08-25T04:22:32;18.70;99.90
23259;DHT22;11798;51.528;7.240;2022-08-25T04:24:58;18.70;99.90
23259;DHT22;11798;51.528;7.240;2022-08-25T04:27:23;18.70;99.90
23259;DHT22;11798;51.528;7.240;2022-08-25T04:29:49;18.70;99.90
23259;DHT22;11798;51.528;7.240;2022-08-25T04:32:14;18.80;99.90
23259;DHT22;11798;51.528;7.240;2022-08-25T04:34:40;18.70;99.90
23259;DHT22;11798;51.528;7.240;2022-08-25T04:37:06;18.70;99.90
23259;DHT22;11798;51.528;7.240;2022-08-25T04:39:32;18.70;99.90
23259;DHT22;11798;51.528;7.240;2022-08-25T04:41:57;18.70;99.90
23259;DHT22;11798;51.528;7.240;2022-08-25T04:44:24;18.70;99.90
23259;DHT22;11798;51.528;7.240;2022-08-25T04:46:50;18.70;99.90
23259;DHT22;11798;51.528;7.240;2022-08-25T04:49:16;18.70;99.90
23259;DHT22;11798;51.528;7.240;2022-08-25T04:51:45;18.70;99.90
23259;DHT22;11798;51.528;7.240;2022-08-25T04:54:11;18.70;99.90
23259;DHT22;11798;51.528;7.240;2022-08-25T04:56:40;18.70;99.90
23259;DHT22;11798;51.528;7.240;2022-08-25T04:59:07;18.60;99.90
23259;DHT22;11798;51.528;7.240;2022-08-25T05:01:34;18.60;99.90
23259;DHT22;11798;51.528;7.240;2022-08-25T05:04:01;18.70;99.90
23259;DHT22;11798;51.528;7.240;2022-08-25T05:06:27;18.70;99.90
23259;DHT22;11798;51.528;7.240;2022-08-25T05:08:53;18.70;99.90
23259;DHT22;11798;51.528;7.240;2022-08-25T05:11:19;18.70;99.90
23259;DHT22;11798;51.528;7.240;2022-08-25T05:13:45;18.80;99.90
23259;DHT22;11798;51.528;7.240;2022-08-25T05:16:10;18.80;99.90
23259;DHT22;11798;51.528;7.240;2022-08-25T05:18:36;18.80;99.90
23259;DHT22;11798;51.528;7.240;2022-08-25T05:21:03;18.80;99.90
23259;DHT22;11798;51.528;7.240;2022-08-25T05:23:29;18.80;99.90
23259;DHT22;11798;51.528;7.240;2022-08-25T05:25:54;18.80;99.90
23259;DHT22;11798;51.528;7.240;2022-08-25T05:28:20;18.80;99.90
23259;DHT22;11798;51.528;7.240;2022-08-25T05:30:46;18.80;99.90
23259;DHT22;11798;51.528;7.240;2022-08-25T05:33:15;18.80;99.90
23259;DHT22;11798;51.528;7.240;2022-08-25T05:35:41;18.80;99.90
23259;DHT22;11798;51.528;7.240;2022-08-25T05:38:07;18.90;99.90
23259;DHT22;11798;51.528;7.240;2022-08-25T05:40:32;18.90;99.90
23259;DHT22;11798;51.528;7.240;2022-08-25T05:42:58;18.90;99.90
23259;DHT22;11798;51.528;7.240;2022-08-25T05:45:24;18.90;99.90
23259;DHT22;11798;51.528;7.240;2022-08-25T05:47:49;18.90;99.90
23259;DHT22;11798;51.528;7.240;2022-08-25T05:50:16;19.00;99.90
23259;DHT22;11798;51.528;7.240;2022-08-25T05:52:41;19.00;99.90
23259;DHT22;11798;51.528;7.240;2022-08-25T05:55:08;19.10;99.90
23259;DHT22;11798;51.528;7.240;2022-08-25T05:57:33;19.20;99.90
23259;DHT22;11798;51.528;7.240;2022-08-25T05:59:59;19.20;99.90
23259;DHT22;11798;51.528;7.240;2022-08-25T06:02:24;19.30;99.90
23259;DHT22;11798;51.528;7.240;2022-08-25T06:05:14;19.40;99.90
23259;DHT22;11798;51.528;7.240;2022-08-25T06:07:41;19.50;99.90
23259;DHT22;11798;51.528;7.240;2022-08-25T06:10:08;19.60;99.90
23259;DHT22;11798;51.528;7.240;2022-08-25T06:12:36;19.70;99.90
23259;DHT22;11798;51.528;7.240;2022-08-25T06:15:02;19.90;99.90
23259;DHT22;11798;51.528;7.240;2022-08-25T06:17:28;19.90;99.90
23259;DHT22;11798;51.528;7.240;2022-08-25T06:19:53;20.10;99.90
23259;DHT22;11798;51.528;7.240;2022-08-25T06:22:19;20.20;99.90
23259;DHT22;11798;51.528;7.240;2022-08-25T06:24:45;20.30;99.90
23259;DHT22;11798;51.528;7.240;2022-08-25T06:27:11;20.50;99.90
23259;DHT22;11798;51.528;7.240;2022-08-25T06:29:36;20.50;99.90
23259;DHT22;11798;51.528;7.240;2022-08-25T06:32:02;20.70;99.90
23259;DHT22;11798;51.528;7.240;2022-08-25T06:34:27;20.70;99.90
23259;DHT22;11798;51.528;7.240;2022-08-25T06:36:53;20.90;99.90
23259;DHT22;11798;51.528;7.240;2022-08-25T06:39:19;21.00;99.90
23259;DHT22;11798;51.528;7.240;2022-08-25T06:41:44;21.10;99.90
23259;DHT22;11798;51.528;7.240;2022-08-25T06:44:10;21.20;99.90
23259;DHT22;11798;51.528;7.240;2022-08-25T06:46:36;21.30;99.90
23259;DHT22;11798;51.528;7.240;2022-08-25T06:49:02;21.40;99.90
23259;DHT22;11798;51.528;7.240;2022-08-25T06:51:28;21.50;99.90
23259;DHT22;11798;51.528;7.240;2022-08-25T06:53:53;21.60;99.90
23259;DHT22;11798;51.528;7.240;2022-08-25T06:56:19;21.60;99.90
23259;DHT22;11798;51.528;7.240;2022-08-25T06:58:46;21.70;99.90
23259;DHT22;11798;51.528;7.240;2022-08-25T07:01:16;21.80;99.90
23259;DHT22;11798;51.528;7.240;2022-08-25T07:03:41;21.80;99.90
23259;DHT22;11798;51.528;7.240;2022-08-25T07:06:07;21.90;99.90
23259;DHT22;11798;51.528;7.240;2022-08-25T07:08:33;22.00;99.90
23259;DHT22;11798;51.528;7.240;2022-08-25T07:11:04;22.00;99.90
23259;DHT22;11798;51.528;7.240;2022-08-25T07:13:29;22.10;99.90
23259;DHT22;11798;51.528;7.240;2022-08-25T07:15:56;22.20;99.90
23259;DHT22;11798;51.528;7.240;2022-08-25T07:18:21;22.20;99.90
23259;DHT22;11798;51.528;7.240;2022-08-25T07:20:47;22.30;99.90
23259;DHT22;11798;51.528;7.240;2022-08-25T07:23:12;22.30;99.90
23259;DHT22;11798;51.528;7.240;2022-08-25T07:25:38;22.40;99.90
23259;DHT22;11798;51.528;7.240;2022-08-25T07:28:03;22.40;99.90
23259;DHT22;11798;51.528;7.240;2022-08-25T07:30:29;22.50;99.90
23259;DHT22;11798;51.528;7.240;2022-08-25T07:32:55;22.60;99.90
23259;DHT22;11798;51.528;7.240;2022-08-25T07:35:21;22.60;99.90
23259;DHT22;11798;51.528;7.240;2022-08-25T07:37:53;22.70;99.90
23259;DHT22;11798;51.528;7.240;2022-08-25T07:40:22;22.70;99.90
23259;DHT22;11798;51.528;7.240;2022-08-25T07:42:48;22.80;99.90
23259;DHT22;11798;51.528;7.240;2022-08-25T07:45:14;22.80;99.90
23259;DHT22;11798;51.528;7.240;2022-08-25T07:47:40;22.90;99.90
23259;DHT22;11798;51.528;7.240;2022-08-25T07:50:07;23.00;99.90
23259;DHT22;11798;51.528;7.240;2022-08-25T07:52:33;23.00;99.90
23259;DHT22;11798;51.528;7.240;2022-08-25T07:54:59;23.10;99.90
23259;DHT22;11798;51.528;7.240;2022-08-25T07:57:24;23.20;99.90
23259;DHT22;11798;51.528;7.240;2022-08-25T07:59:51;23.30;99.90
23259;DHT22;11798;51.528;7.240;2022-08-25T08:02:17;23.40;99.90
23259;DHT22;11798;51.528;7.240;2022-08-25T08:04:42;23.40;99.90
23259;DHT22;11798;51.528;7.240;2022-08-25T08:07:10;23.50;99.90
23259;DHT22;11798;51.528;7.240;2022-08-25T08:09:36;23.50;99.90
23259;DHT22;11798;51.528;7.240;2022-08-25T08:12:02;23.60;99.90
23259;DHT22;11798;51.528;7.240;2022-08-25T08:14:27;23.60;99.90
23259;DHT22;11798;51.528;7.240;2022-08-25T08:16:53;23.70;99.90
23259;DHT22;11798;51.528;7.240;2022-08-25T08:19:19;23.80;99.90
23259;DHT22;11798;51.528;7.240;2022-08-25T08:21:44;23.80;99.90
23259;DHT22;11798;51.528;7.240;2022-08-25T08:24:11;24.00;99.90
23259;DHT22;11798;51.528;7.240;2022-08-25T08:26:36;24.00;99.90
23259;DHT22;11798;51.528;7.240;2022-08-25T08:29:02;24.10;99.90
23259;DHT22;11798;51.528;7.240;2022-08-25T08:31:27;24.10;99.90
23259;DHT22;11798;51.528;7.240;2022-08-25T08:33:54;24.20;99.90
23259;DHT22;11798;51.528;7.240;2022-08-25T08:36:20;24.20;99.90
23259;DHT22;11798;51.528;7.240;2022-08-25T08:38:45;24.50;99.90
23259;DHT22;11798;51.528;7.240;2022-08-25T08:49:21;24.70;99.90
23259;DHT22;11798;51.528;7.240;2022-08-25T08:51:53;24.80;99.90
23259;DHT22;11798;51.528;7.240;2022-08-25T08:54:21;24.90;99.90
23259;DHT22;11798;51.528;7.240;2022-08-25T08:56:49;25.00;99.90
23259;DHT22;11798;51.528;7.240;2022-08-25T08:59:23;25.10;99.90
23259;DHT22;11798;51.528;7.240;2022-08-25T09:01:54;25.20;99.90
23259;DHT22;11798;51.528;7.240;2022-08-25T09:04:41;25.30;99.90
23259;DHT22;11798;51.528;7.240;2022-08-25T09:07:23;25.30;99.90
23259;DHT22;11798;51.528;7.240;2022-08-25T09:09:50;25.50;99.90
23259;DHT22;11798;51.528;7.240;2022-08-25T09:12:22;25.70;99.90
23259;DHT22;11798;51.528;7.240;2022-08-25T09:30:19;26.20;99.90
23259;DHT22;11798;51.528;7.240;2022-08-25T09:32:49;26.30;99.90
23259;DHT22;11798;51.528;7.240;2022-08-25T09:35:22;26.40;99.90
23259;DHT22;11798;51.528;7.240;2022-08-25T09:38:21;26.50;99.90
23259;DHT22;11798;51.528;7.240;2022-08-25T09:40:43;26.60;99.90
23259;DHT22;11798;51.528;7.240;2022-08-25T09:43:21;26.80;99.90
23259;DHT22;11798;51.528;7.240;2022-08-25T09:45:48;27.00;99.90
23259;DHT22;11798;51.528;7.240;2022-08-25T09:48:21;27.10;99.90
23259;DHT22;11798;51.528;7.240;2022-08-25T09:50:47;27.00;99.90
23259;DHT22;11798;51.528;7.240;2022-08-25T09:53:13;27.00;99.90
23259;DHT22;11798;51.528;7.240;2022-08-25T09:55:40;27.10;99.90
23259;DHT22;11798;51.528;7.240;2022-08-25T09:58:40;27.10;99.90
23259;DHT22;11798;51.528;7.240;2022-08-25T10:01:07;27.20;99.90
23259;DHT22;11798;51.528;7.240;2022-08-25T10:03:35;27.40;99.90
23259;DHT22;11798;51.528;7.240;2022-08-25T10:06:08;27.60;99.90
23259;DHT22;11798;51.528;7.240;2022-08-25T10:11:11;27.60;99.90
23259;DHT22;11798;51.528;7.240;2022-08-25T10:13:46;27.70;99.90
23259;DHT22;11798;51.528;7.240;2022-08-25T10:16:33;27.70;99.90
23259;DHT22;11798;51.528;7.240;2022-08-25T10:19:09;27.70;99.90
23259;DHT22;11798;51.528;7.240;2022-08-25T10:21:36;27.70;99.90
23259;DHT22;11798;51.528;7.240;2022-08-25T10:24:02;27.80;99.90
23259;DHT22;11798;51.528;7.240;2022-08-25T10:36:47;28.00;99.90
23259;DHT22;11798;51.528;7.240;2022-08-25T10:39:17;28.10;99.90
23259;DHT22;11798;51.528;7.240;2022-08-25T10:42:45;28.20;99.90
23259;DHT22;11798;51.528;7.240;2022-08-25T10:45:12;28.20;99.90
23259;DHT22;11798;51.528;7.240;2022-08-25T10:48:06;28.50;99.90
23259;DHT22;11798;51.528;7.240;2022-08-25T11:01:43;28.50;99.90
23259;DHT22;11798;51.528;7.240;2022-08-25T11:04:12;28.60;99.90
23259;DHT22;11798;51.528;7.240;2022-08-25T11:09:12;28.60;99.90
23259;DHT22;11798;51.528;7.240;2022-08-25T11:11:58;28.40;99.90
23259;DHT22;11798;51.528;7.240;2022-08-25T11:14:48;28.40;99.90
23259;DHT22;11798;51.528;7.240;2022-08-25T11:17:25;28.40;99.90
23259;DHT22;11798;51.528;7.240;2022-08-25T11:19:56;28.50;99.90
23259;DHT22;11798;51.528;7.240;2022-08-25T11:22:24;28.70;99.90
23259;DHT22;11798;51.528;7.240;2022-08-25T11:27:45;28.80;99.90
23259;DHT22;11798;51.528;7.240;2022-08-25T11:30:13;28.80;99.90
23259;DHT22;11798;51.528;7.240;2022-08-25T11:32:44;28.80;99.90
23259;DHT22;11798;51.528;7.240;2022-08-25T11:35:12;28.80;99.90
23259;DHT22;11798;51.528;7.240;2022-08-25T11:40:37;28.90;99.90
23259;DHT22;11798;51.528;7.240;2022-08-25T11:46:36;29.00;99.90
23259;DHT22;11798;51.528;7.240;2022-08-25T11:51:49;29.00;99.90
23259;DHT22;11798;51.528;7.240;2022-08-25T11:57:04;29.30;99.90
23259;DHT22;11798;51.528;7.240;2022-08-25T12:10:25;29.30;99.90
23259;DHT22;11798;51.528;7.240;2022-08-25T12:21:46;29.40;99.90
23259;DHT22;11798;51.528;7.240;2022-08-25T12:24:14;29.50;99.90
23259;DHT22;11798;51.528;7.240;2022-08-25T12:29:29;29.40;99.90
23259;DHT22;11798;51.528;7.240;2022-08-25T12:37:24;29.60;99.90
23259;DHT22;11798;51.528;7.240;2022-08-25T12:47:44;29.80;99.90
23259;DHT22;11798;51.528;7.240;2022-08-25T12:53:37;29.90;99.90
23259;DHT22;11798;51.528;7.240;2022-08-25T12:56:15;29.90;99.90
23259;DHT22;11798;51.528;7.240;2022-08-25T13:01:33;30.00;99.90
23259;DHT22;11798;51.528;7.240;2022-08-25T13:04:14;30.00;99.90
23259;DHT22;11798;51.528;7.240;2022-08-25T13:20:48;30.00;99.90
23259;DHT22;11798;51.528;7.240;2022-08-25T13:23:20;30.00;99.90
23259;DHT22;11798;51.528;7.240;2022-08-25T13:25:50;30.00;99.90
23259;DHT22;11798;51.528;7.240;2022-08-25T13:28:27;30.10;99.90
23259;DHT22;11798;51.528;7.240;2022-08-25T13:31:06;30.10;99.90
23259;DHT22;11798;51.528;7.240;2022-08-25T13:33:33;30.10;99.90
23259;DHT22;11798;51.528;7.240;2022-08-25T13:36:00;30.10;99.90
23259;DHT22;11798;51.528;7.240;2022-08-25T13:38:46;30.10;99.90
23259;DHT22;11798;51.528;7.240;2022-08-25T13:41:17;30.10;99.90
23259;DHT22;11798;51.528;7.240;2022-08-25T13:43:43;30.00;99.90
23259;DHT22;11798;51.528;7.240;2022-08-25T13:46:09;30.00;99.90
23259;DHT22;11798;51.528;7.240;2022-08-25T13:48:39;29.90;99.90
23259;DHT22;11798;51.528;7.240;2022-08-25T13:51:09;29.90;99.90
23259;DHT22;11798;51.528;7.240;2022-08-25T13:53:50;29.90;99.90
23259;DHT22;11798;51.528;7.240;2022-08-25T13:56:46;29.90;99.90
23259;DHT22;11798;51.528;7.240;2022-08-25T13:59:25;29.90;99.90
23259;DHT22;11798;51.528;7.240;2022-08-25T14:01:53;29.80;99.90
23259;DHT22;11798;51.528;7.240;2022-08-25T14:07:26;29.80;99.90
23259;DHT22;11798;51.528;7.240;2022-08-25T14:09:56;29.90;99.90
23259;DHT22;11798;51.528;7.240;2022-08-25T14:12:44;29.90;99.90
23259;DHT22;11798;51.528;7.240;2022-08-25T14:15:24;29.80;99.90
23259;DHT22;11798;51.528;7.240;2022-08-25T14:18:11;29.90;99.90
23259;DHT22;11798;51.528;7.240;2022-08-25T14:20:44;29.90;99.90
23259;DHT22;11798;51.528;7.240;2022-08-25T14:23:13;29.90;99.90
23259;DHT22;11798;51.528;7.240;2022-08-25T14:25:41;29.90;99.90
23259;DHT22;11798;51.528;7.240;2022-08-25T14:28:11;29.90;99.90
23259;DHT22;11798;51.528;7.240;2022-08-25T14:30:53;30.00;99.90
23259;DHT22;11798;51.528;7.240;2022-08-25T14:33:27;30.00;99.90
23259;DHT22;11798;51.528;7.240;2022-08-25T14:35:54;30.00;99.90
23259;DHT22;11798;51.528;7.240;2022-08-25T14:38:22;30.00;99.90
23259;DHT22;11798;51.528;7.240;2022-08-25T14:40:48;30.10;99.90
23259;DHT22;11798;51.528;7.240;2022-08-25T14:43:14;30.10;99.90
23259;DHT22;11798;51.528;7.240;2022-08-25T14:45:42;30.10;99.90
23259;DHT22;11798;51.528;7.240;2022-08-25T14:48:14;30.10;99.90
23259;DHT22;11798;51.528;7.240;2022-08-25T14:50:42;30.10;99.90
23259;DHT22;11798;51.528;7.240;2022-08-25T14:53:09;30.20;99.90
23259;DHT22;11798;51.528;7.240;2022-08-25T14:55:35;30.50;99.90
23259;DHT22;11798;51.528;7.240;2022-08-25T14:58:02;30.60;99.90
23259;DHT22;11798;51.528;7.240;2022-08-25T15:00:28;30.80;99.90
23259;DHT22;11798;51.528;7.240;2022-08-25T15:02:54;30.90;99.90
23259;DHT22;11798;51.528;7.240;2022-08-25T15:05:24;31.10;99.90
23259;DHT22;11798;51.528;7.240;2022-08-25T15:07:52;31.40;99.90
23259;DHT22;11798;51.528;7.240;2022-08-25T15:10:37;31.70;99.90
23259;DHT22;11798;51.528;7.240;2022-08-25T15:13:03;32.00;99.90
23259;DHT22;11798;51.528;7.240;2022-08-25T15:15:38;32.30;99.90
23259;DHT22;11798;51.528;7.240;2022-08-25T15:18:04;32.40;99.90
23259;DHT22;11798;51.528;7.240;2022-08-25T15:20:30;32.30;99.90
23259;DHT22;11798;51.528;7.240;2022-08-25T15:22:55;32.50;99.90
23259;DHT22;11798;51.528;7.240;2022-08-25T15:25:21;32.70;99.90
23259;DHT22;11798;51.528;7.240;2022-08-25T15:27:47;32.90;99.90
23259;DHT22;11798;51.528;7.240;2022-08-25T15:30:13;33.20;99.90
23259;DHT22;11798;51.528;7.240;2022-08-25T15:32:39;33.40;99.90
23259;DHT22;11798;51.528;7.240;2022-08-25T15:35:05;33.40;99.90
23259;DHT22;11798;51.528;7.240;2022-08-25T15:37:31;33.40;99.90
23259;DHT22;11798;51.528;7.240;2022-08-25T15:39:56;33.70;99.90
23259;DHT22;11798;51.528;7.240;2022-08-25T15:42:22;33.90;99.90
23259;DHT22;11798;51.528;7.240;2022-08-25T15:44:49;34.10;99.90
23259;DHT22;11798;51.528;7.240;2022-08-25T15:47:15;34.10;99.90
23259;DHT22;11798;51.528;7.240;2022-08-25T15:49:41;34.20;99.90
23259;DHT22;11798;51.528;7.240;2022-08-25T15:52:07;34.30;99.90
23259;DHT22;11798;51.528;7.240;2022-08-25T15:54:34;34.50;99.90
23259;DHT22;11798;51.528;7.240;2022-08-25T15:56:59;34.70;99.90
23259;DHT22;11798;51.528;7.240;2022-08-25T15:59:26;35.00;99.90
23259;DHT22;11798;51.528;7.240;2022-08-25T16:01:52;35.30;99.90
23259;DHT22;11798;51.528;7.240;2022-08-25T16:04:19;34.90;99.90
23259;DHT22;11798;51.528;7.240;2022-08-25T16:06:46;34.50;99.90
23259;DHT22;11798;51.528;7.240;2022-08-25T16:09:11;34.10;99.90
23259;DHT22;11798;51.528;7.240;2022-08-25T16:11:37;33.90;99.90
23259;DHT22;11798;51.528;7.240;2022-08-25T16:14:04;33.40;99.90
23259;DHT22;11798;51.528;7.240;2022-08-25T16:16:30;32.90;99.90
23259;DHT22;11798;51.528;7.240;2022-08-25T16:18:57;32.50;99.90
23259;DHT22;11798;51.528;7.240;2022-08-25T16:21:26;32.40;99.90
23259;DHT22;11798;51.528;7.240;2022-08-25T16:23:53;32.30;99.90
23259;DHT22;11798;51.528;7.240;2022-08-25T16:26:20;32.10;99.90
23259;DHT22;11798;51.528;7.240;2022-08-25T16:28:45;32.00;99.90
23259;DHT22;11798;51.528;7.240;2022-08-25T16:31:13;31.70;99.90
23259;DHT22;11798;51.528;7.240;2022-08-25T16:33:39;31.60;99.90
23259;DHT22;11798;51.528;7.240;2022-08-25T16:36:08;31.40;99.90
23259;DHT22;11798;51.528;7.240;2022-08-25T16:38:34;31.20;99.90
23259;DHT22;11798;51.528;7.240;2022-08-25T16:41:04;31.10;99.90
23259;DHT22;11798;51.528;7.240;2022-08-25T16:43:30;31.00;99.90
23259;DHT22;11798;51.528;7.240;2022-08-25T16:46:00;30.90;99.90
23259;DHT22;11798;51.528;7.240;2022-08-25T16:48:27;30.70;99.90
23259;DHT22;11798;51.528;7.240;2022-08-25T16:50:52;30.70;99.90
23259;DHT22;11798;51.528;7.240;2022-08-25T16:53:18;30.50;99.90
23259;DHT22;11798;51.528;7.240;2022-08-25T16:56:03;30.50;99.90
23259;DHT22;11798;51.528;7.240;2022-08-25T16:58:30;30.30;99.90
23259;DHT22;11798;51.528;7.240;2022-08-25T17:01:11;30.20;99.90
23259;DHT22;11798;51.528;7.240;2022-08-25T17:03:39;30.10;99.90
23259;DHT22;11798;51.528;7.240;2022-08-25T17:06:05;30.00;99.90
23259;DHT22;11798;51.528;7.240;2022-08-25T17:08:33;30.00;99.90
23259;DHT22;11798;51.528;7.240;2022-08-25T17:11:09;29.90;99.90
23259;DHT22;11798;51.528;7.240;2022-08-25T17:13:37;29.90;99.90
23259;DHT22;11798;51.528;7.240;2022-08-25T17:16:03;29.80;99.90
23259;DHT22;11798;51.528;7.240;2022-08-25T17:18:29;29.80;99.90
23259;DHT22;11798;51.528;7.240;2022-08-25T17:21:00;29.70;99.90
23259;DHT22;11798;51.528;7.240;2022-08-25T17:23:26;29.60;99.90
23259;DHT22;11798;51.528;7.240;2022-08-25T17:25:52;29.50;99.90
23259;DHT22;11798;51.528;7.240;2022-08-25T17:28:17;29.50;99.90
23259;DHT22;11798;51.528;7.240;2022-08-25T17:30:44;29.40;99.90
23259;DHT22;11798;51.528;7.240;2022-08-25T17:33:11;29.30;99.90
23259;DHT22;11798;51.528;7.240;2022-08-25T17:35:44;29.30;99.90
23259;DHT22;11798;51.528;7.240;2022-08-25T17:38:10;29.20;99.90
23259;DHT22;11798;51.528;7.240;2022-08-25T17:40:37;29.10;99.90
23259;DHT22;11798;51.528;7.240;2022-08-25T17:43:04;29.10;99.90
23259;DHT22;11798;51.528;7.240;2022-08-25T17:45:30;29.00;99.90